createdAt,value
2016-05-31T00:00:39.484Z,997.32
2016-05-31T00:01:39.486Z,997.34
2016-05-31T00:02:39.474Z,997.33
2016-05-31T00:03:39.477Z,997.38
2016-05-31T00:04:39.447Z,997.34
2016-05-31T00:05:39.466Z,997.37
2016-05-31T00:06:39.422Z,997.33
2016-05-31T00:07:39.424Z,997.29
2016-05-31T00:08:39.411Z,997.27
2016-05-31T00:09:39.399Z,997.28
2016-05-31T00:10:39.386Z,997.28
2016-05-31T00:11:39.373Z,997.27
2016-05-31T00:12:39.360Z,997.3
2016-05-31T00:13:39.346Z,997.33
2016-05-31T00:14:39.334Z,997.3
2016-05-31T00:15:39.321Z,997.31
2016-05-31T00:16:39.340Z,997.29
2016-05-31T00:17:39.310Z,997.32
2016-05-31T00:18:39.297Z,997.33
2016-05-31T00:19:39.285Z,997.35
2016-05-31T00:20:39.273Z,997.37
2016-05-31T00:21:39.259Z,997.4
2016-05-31T00:22:39.261Z,997.42
2016-05-31T00:23:39.233Z,997.38
2016-05-31T00:24:39.219Z,997.42
2016-05-31T00:25:39.223Z,997.39
2016-05-31T00:26:39.209Z,997.38
2016-05-31T00:27:39.197Z,997.37
2016-05-31T00:28:39.183Z,997.35
2016-05-31T00:29:39.172Z,997.36
2016-05-31T00:30:39.158Z,997.34
2016-05-31T00:31:39.145Z,997.35
2016-05-31T00:32:39.132Z,997.34
2016-05-31T00:33:39.119Z,997.37
2016-05-31T00:34:39.122Z,997.33
2016-05-31T00:35:39.125Z,997.32
2016-05-31T00:36:39.096Z,997.33
2016-05-31T00:37:39.083Z,997.35
2016-05-31T00:38:39.070Z,997.36
2016-05-31T00:39:39.058Z,997.38
2016-05-31T00:40:39.044Z,997.4
2016-05-31T00:41:39.046Z,997.38
2016-05-31T00:42:39.034Z,997.42
2016-05-31T00:43:39.021Z,997.4
2016-05-31T00:44:39.008Z,997.4
2016-05-31T00:45:38.995Z,997.44
2016-05-31T00:46:38.982Z,997.41
2016-05-31T00:47:38.970Z,997.47
2016-05-31T00:48:38.957Z,997.45
2016-05-31T00:49:38.944Z,997.49
2016-05-31T00:50:38.946Z,997.5
2016-05-31T00:51:38.933Z,997.48
2016-05-31T00:52:38.921Z,997.5
2016-05-31T00:53:38.907Z,997.49
2016-05-31T00:54:38.895Z,997.48
2016-05-31T00:55:38.897Z,997.52
2016-05-31T00:56:38.869Z,997.51
2016-05-31T00:57:38.856Z,997.5
2016-05-31T00:58:38.842Z,997.54
2016-05-31T00:59:38.830Z,997.5
2016-05-31T01:00:38.833Z,997.52
2016-05-31T01:01:38.803Z,997.54
2016-05-31T01:02:38.806Z,997.56
2016-05-31T01:03:38.794Z,997.55
2016-05-31T01:04:38.781Z,997.52
2016-05-31T01:05:38.768Z,997.55
2016-05-31T01:06:38.755Z,997.56
2016-05-31T01:07:38.742Z,997.58
2016-05-31T01:08:38.932Z,997.59
2016-05-31T01:09:38.716Z,997.55
2016-05-31T01:10:38.703Z,997.58
2016-05-31T01:11:38.705Z,997.6
2016-05-31T01:12:38.693Z,997.57
2016-05-31T01:13:38.680Z,997.6
2016-05-31T01:14:38.667Z,997.59
2016-05-31T01:15:38.654Z,997.62
2016-05-31T01:16:38.641Z,997.59
2016-05-31T01:17:38.628Z,997.62
2016-05-31T01:18:38.662Z,997.61
2016-05-31T01:19:38.602Z,997.6
2016-05-31T01:20:38.604Z,997.62
2016-05-31T01:21:38.576Z,997.61
2016-05-31T01:22:38.689Z,997.64
2016-05-31T01:23:38.597Z,997.66
2016-05-31T01:24:38.570Z,997.64
2016-05-31T01:25:38.540Z,997.64
2016-05-31T01:26:38.543Z,997.71
2016-05-31T01:27:38.514Z,997.68
2016-05-31T01:28:38.533Z,997.66
2016-05-31T01:29:38.489Z,997.65
2016-05-31T01:30:38.492Z,997.67
2016-05-31T01:31:38.463Z,997.67
2016-05-31T01:32:38.466Z,997.66
2016-05-31T01:33:38.452Z,997.65
2016-05-31T01:34:38.472Z,997.66
2016-05-31T01:35:38.427Z,997.7
2016-05-31T01:36:38.429Z,997.66
2016-05-31T01:37:38.417Z,997.66
2016-05-31T01:38:38.388Z,997.66
2016-05-31T01:39:38.375Z,997.68
2016-05-31T01:40:38.377Z,997.68
2016-05-31T01:41:38.365Z,997.7
2016-05-31T01:42:38.351Z,997.74
2016-05-31T01:43:38.338Z,997.77
2016-05-31T01:44:38.326Z,997.8
2016-05-31T01:45:38.313Z,997.79
2016-05-31T01:46:38.299Z,997.8
2016-05-31T01:47:38.287Z,997.79
2016-05-31T01:48:38.274Z,997.8
2016-05-31T01:49:38.262Z,997.83
2016-05-31T01:50:38.248Z,997.83
2016-05-31T01:51:38.251Z,997.84
2016-05-31T01:52:39.066Z,997.84
2016-05-31T01:53:38.225Z,997.89
2016-05-31T01:54:38.212Z,997.88
2016-05-31T01:55:38.199Z,997.89
2016-05-31T01:56:38.187Z,997.9
2016-05-31T01:57:38.173Z,997.86
2016-05-31T01:58:38.161Z,997.85
2016-05-31T01:59:38.147Z,997.85
2016-05-31T02:00:38.134Z,997.9
2016-05-31T02:01:38.122Z,997.92
2016-05-31T02:02:38.109Z,997.9
2016-05-31T02:03:38.111Z,997.88
2016-05-31T02:04:38.098Z,997.89
2016-05-31T02:05:38.085Z,997.91
2016-05-31T02:06:38.073Z,997.92
2016-05-31T02:07:38.060Z,997.92
2016-05-31T02:08:38.046Z,997.94
2016-05-31T02:09:38.033Z,997.96
2016-05-31T02:10:38.021Z,997.94
2016-05-31T02:11:38.008Z,997.95
2016-05-31T02:12:37.995Z,998.01
2016-05-31T02:13:37.982Z,998
2016-05-31T02:14:37.969Z,997.98
2016-05-31T02:15:37.972Z,998.03
2016-05-31T02:16:37.959Z,998.02
2016-05-31T02:17:37.946Z,998.04
2016-05-31T02:18:37.933Z,998.06
2016-05-31T02:19:37.921Z,998.08
2016-05-31T02:20:37.907Z,998.09
2016-05-31T02:21:37.894Z,998.1
2016-05-31T02:22:37.881Z,998.13
2016-05-31T02:23:37.868Z,998.11
2016-05-31T02:24:37.856Z,998.15
2016-05-31T02:25:37.843Z,998.15
2016-05-31T02:26:37.830Z,998.2
2016-05-31T02:27:37.817Z,998.18
2016-05-31T02:28:37.804Z,998.18
2016-05-31T02:29:37.791Z,998.16
2016-05-31T02:30:37.778Z,998.17
2016-05-31T02:31:37.781Z,998.12
2016-05-31T02:32:37.752Z,998.14
2016-05-31T02:33:37.755Z,998.18
2016-05-31T02:34:37.742Z,998.18
2016-05-31T02:35:37.729Z,998.19
2016-05-31T02:36:37.716Z,998.21
2016-05-31T02:37:38.391Z,998.15
2016-05-31T02:38:37.689Z,998.18
2016-05-31T02:39:37.677Z,998.16
2016-05-31T02:40:37.664Z,998.19
2016-05-31T02:41:37.651Z,998.2
2016-05-31T02:42:37.638Z,998.19
2016-05-31T02:43:37.625Z,998.21
2016-05-31T02:44:37.628Z,998.2
2016-05-31T02:45:37.599Z,998.22
2016-05-31T02:46:37.586Z,998.25
2016-05-31T02:47:37.588Z,998.23
2016-05-31T02:48:37.560Z,998.26
2016-05-31T02:49:37.563Z,998.22
2016-05-31T02:50:37.535Z,998.26
2016-05-31T02:51:37.538Z,998.25
2016-05-31T02:52:37.524Z,998.24
2016-05-31T02:53:37.527Z,998.24
2016-05-31T02:54:37.498Z,998.23
2016-05-31T02:55:37.485Z,998.22
2016-05-31T02:56:37.473Z,998.22
2016-05-31T02:57:37.460Z,998.25
2016-05-31T02:58:37.447Z,998.3
2016-05-31T02:59:37.434Z,998.35
2016-05-31T03:00:37.420Z,998.35
2016-05-31T03:01:37.409Z,998.35
2016-05-31T03:02:37.395Z,998.36
2016-05-31T03:03:37.382Z,998.4
2016-05-31T03:04:37.384Z,998.4
2016-05-31T03:05:37.356Z,998.36
2016-05-31T03:06:37.359Z,998.39
2016-05-31T03:07:37.439Z,998.41
2016-05-31T03:08:37.521Z,998.4
2016-05-31T03:09:37.523Z,998.42
2016-05-31T03:10:37.308Z,998.46
2016-05-31T03:11:37.294Z,998.48
2016-05-31T03:12:37.280Z,998.53
2016-05-31T03:13:37.269Z,998.51
2016-05-31T03:14:37.255Z,998.55
2016-05-31T03:15:37.243Z,998.57
2016-05-31T03:16:37.230Z,998.56
2016-05-31T03:17:37.216Z,998.56
2016-05-31T03:18:37.204Z,998.6
2016-05-31T03:19:37.191Z,998.63
2016-05-31T03:20:37.177Z,998.65
2016-05-31T03:21:37.165Z,998.66
2016-05-31T03:22:38.090Z,998.65
2016-05-31T03:23:37.140Z,998.68
2016-05-31T03:24:37.142Z,998.7
2016-05-31T03:25:37.176Z,998.67
2016-05-31T03:26:37.116Z,998.67
2016-05-31T03:27:37.103Z,998.67
2016-05-31T03:28:37.089Z,998.63
2016-05-31T03:29:37.077Z,998.67
2016-05-31T03:30:37.064Z,998.7
2016-05-31T03:31:37.051Z,998.65
2016-05-31T03:32:37.054Z,998.67
2016-05-31T03:33:37.025Z,998.7
2016-05-31T03:34:37.012Z,998.72
2016-05-31T03:35:37.000Z,998.69
2016-05-31T03:36:36.987Z,998.68
2016-05-31T03:37:36.973Z,998.72
2016-05-31T03:38:37.086Z,998.72
2016-05-31T03:39:36.964Z,998.78
2016-05-31T03:40:36.950Z,998.73
2016-05-31T03:41:36.938Z,998.77
2016-05-31T03:42:36.924Z,998.81
2016-05-31T03:43:36.911Z,998.87
2016-05-31T03:44:36.899Z,998.82
2016-05-31T03:45:36.885Z,998.83
2016-05-31T03:46:36.873Z,998.86
2016-05-31T03:47:36.860Z,998.87
2016-05-31T03:48:36.846Z,998.89
2016-05-31T03:49:36.850Z,998.87
2016-05-31T03:50:36.821Z,998.88
2016-05-31T03:51:36.807Z,998.87
2016-05-31T03:52:36.796Z,998.79
2016-05-31T03:53:36.782Z,998.79
2016-05-31T03:54:36.785Z,998.79
2016-05-31T03:55:36.772Z,998.83
2016-05-31T03:56:36.759Z,998.82
2016-05-31T03:57:36.746Z,998.83
2016-05-31T03:58:36.734Z,998.81
2016-05-31T03:59:36.720Z,998.84
2016-05-31T04:00:36.707Z,998.86
2016-05-31T04:01:36.694Z,998.83
2016-05-31T04:02:36.682Z,998.88
2016-05-31T04:03:36.668Z,998.87
2016-05-31T04:04:36.655Z,998.84
2016-05-31T04:05:36.643Z,998.84
2016-05-31T04:06:36.645Z,998.83
2016-05-31T04:07:36.632Z,998.82
2016-05-31T04:08:36.619Z,998.84
2016-05-31T04:09:36.607Z,998.81
2016-05-31T04:10:36.594Z,998.81
2016-05-31T04:11:36.580Z,998.84
2016-05-31T04:12:36.568Z,998.88
2016-05-31T04:13:36.555Z,998.87
2016-05-31T04:14:36.541Z,998.91
2016-05-31T04:15:36.529Z,998.95
2016-05-31T04:16:36.516Z,998.93
2016-05-31T04:17:36.503Z,998.91
2016-05-31T04:18:36.490Z,998.86
2016-05-31T04:19:36.477Z,998.87
2016-05-31T04:20:36.480Z,998.84
2016-05-31T04:21:36.451Z,998.86
2016-05-31T04:22:37.251Z,998.91
2016-05-31T04:23:36.738Z,998.87
2016-05-31T04:24:36.429Z,998.93
2016-05-31T04:25:36.415Z,998.88
2016-05-31T04:26:36.402Z,998.91
2016-05-31T04:27:36.405Z,998.91
2016-05-31T04:28:36.376Z,998.91
2016-05-31T04:29:36.362Z,998.9
2016-05-31T04:30:36.365Z,998.94
2016-05-31T04:31:36.338Z,998.92
2016-05-31T04:32:36.325Z,998.94
2016-05-31T04:33:36.327Z,998.93
2016-05-31T04:34:36.315Z,998.92
2016-05-31T04:35:36.301Z,998.91
2016-05-31T04:36:36.288Z,998.89
2016-05-31T04:37:36.448Z,998.92
2016-05-31T04:38:36.512Z,998.9
2016-05-31T04:39:36.250Z,998.91
2016-05-31T04:40:36.236Z,998.99
2016-05-31T04:41:36.225Z,999.05
2016-05-31T04:42:36.227Z,999.05
2016-05-31T04:43:36.197Z,999.04
2016-05-31T04:44:36.185Z,999.06
2016-05-31T04:45:36.172Z,999.05
2016-05-31T04:46:36.159Z,999.07
2016-05-31T04:47:36.161Z,999.08
2016-05-31T04:48:36.149Z,999.09
2016-05-31T04:49:36.136Z,999.1
2016-05-31T04:50:36.123Z,999.15
2016-05-31T04:51:36.110Z,999.16
2016-05-31T04:52:36.097Z,999.19
2016-05-31T04:53:36.085Z,999.24
2016-05-31T04:54:36.071Z,999.27
2016-05-31T04:55:36.058Z,999.29
2016-05-31T04:56:36.045Z,999.28
2016-05-31T04:57:36.032Z,999.29
2016-05-31T04:58:36.020Z,999.33
2016-05-31T04:59:36.022Z,999.4
2016-05-31T05:00:36.010Z,999.4
2016-05-31T05:01:35.996Z,999.43
2016-05-31T05:02:35.983Z,999.45
2016-05-31T05:03:35.971Z,999.49
2016-05-31T05:04:35.957Z,999.44
2016-05-31T05:05:35.945Z,999.49
2016-05-31T05:06:35.931Z,999.46
2016-05-31T05:07:35.935Z,999.5
2016-05-31T05:08:35.922Z,999.51
2016-05-31T05:09:36.111Z,999.53
2016-05-31T05:10:35.895Z,999.53
2016-05-31T05:11:35.882Z,999.52
2016-05-31T05:12:35.870Z,999.55
2016-05-31T05:13:35.856Z,999.59
2016-05-31T05:14:35.844Z,999.58
2016-05-31T05:15:35.831Z,999.63
2016-05-31T05:16:35.818Z,999.62
2016-05-31T05:17:35.836Z,999.66
2016-05-31T05:18:35.807Z,999.65
2016-05-31T05:19:36.014Z,999.62
2016-05-31T05:20:35.782Z,999.61
2016-05-31T05:21:35.769Z,999.63
2016-05-31T05:22:35.755Z,999.64
2016-05-31T05:23:35.977Z,999.65
2016-05-31T05:24:35.746Z,999.68
2016-05-31T05:25:35.732Z,999.63
2016-05-31T05:26:35.720Z,999.65
2016-05-31T05:27:35.707Z,999.61
2016-05-31T05:28:35.694Z,999.62
2016-05-31T05:29:35.681Z,999.6
2016-05-31T05:30:35.668Z,999.55
2016-05-31T05:31:35.671Z,999.52
2016-05-31T05:32:35.673Z,999.54
2016-05-31T05:33:35.645Z,999.59
2016-05-31T05:34:35.632Z,999.61
2016-05-31T05:35:35.620Z,999.59
2016-05-31T05:36:35.606Z,999.62
2016-05-31T05:37:35.718Z,999.69
2016-05-31T05:38:35.580Z,999.69
2016-05-31T05:39:35.567Z,999.72
2016-05-31T05:40:35.554Z,999.75
2016-05-31T05:41:35.556Z,999.76
2016-05-31T05:42:35.545Z,999.8
2016-05-31T05:43:35.531Z,999.79
2016-05-31T05:44:35.519Z,999.81
2016-05-31T05:45:35.505Z,999.84
2016-05-31T05:46:35.492Z,999.82
2016-05-31T05:47:35.495Z,999.82
2016-05-31T05:48:35.482Z,999.83
2016-05-31T05:49:35.469Z,999.85
2016-05-31T05:50:35.455Z,999.85
2016-05-31T05:51:35.459Z,999.85
2016-05-31T05:52:35.430Z,999.86
2016-05-31T05:53:35.417Z,999.81
2016-05-31T05:54:35.421Z,999.88
2016-05-31T05:55:35.407Z,999.83
2016-05-31T05:56:35.394Z,999.84
2016-05-31T05:57:35.405Z,999.88
2016-05-31T05:58:35.404Z,999.86
2016-05-31T05:59:35.417Z,999.92
2016-05-31T06:00:35.446Z,999.91
2016-05-31T06:01:35.460Z,999.97
2016-05-31T06:02:35.484Z,1000
2016-05-31T06:03:35.465Z,999.96
2016-05-31T06:04:35.461Z,999.95
2016-05-31T06:05:35.474Z,999.98
2016-05-31T06:06:35.470Z,999.95
2016-05-31T06:07:35.465Z,999.94
2016-05-31T06:08:35.455Z,1000.02
2016-05-31T06:09:35.462Z,1000.03
2016-05-31T06:10:35.452Z,1000.06
2016-05-31T06:11:35.443Z,1000.03
2016-05-31T06:12:35.432Z,1000.01
2016-05-31T06:13:35.420Z,1000.04
2016-05-31T06:14:35.425Z,1000.06
2016-05-31T06:15:35.413Z,1000.04
2016-05-31T06:16:35.400Z,1000.07
2016-05-31T06:17:35.389Z,1000.1
2016-05-31T06:18:35.376Z,1000.13
2016-05-31T06:19:35.379Z,1000.1
2016-05-31T06:20:35.366Z,1000.12
2016-05-31T06:21:35.354Z,1000.11
2016-05-31T06:22:35.670Z,1000.12
2016-05-31T06:23:35.344Z,1000.12
2016-05-31T06:24:35.331Z,1000.13
2016-05-31T06:25:35.319Z,1000.13
2016-05-31T06:26:35.305Z,1000.15
2016-05-31T06:27:35.293Z,1000.11
2016-05-31T06:28:35.295Z,1000.13
2016-05-31T06:29:35.282Z,1000.14
2016-05-31T06:30:35.269Z,1000.14
2016-05-31T06:31:35.256Z,1000.15
2016-05-31T06:32:35.259Z,1000.19
2016-05-31T06:33:35.245Z,1000.12
2016-05-31T06:34:35.234Z,1000.15
2016-05-31T06:35:35.220Z,1000.14
2016-05-31T06:36:35.223Z,1000.11
2016-05-31T06:37:35.225Z,1000.08
2016-05-31T06:38:35.791Z,1000.07
2016-05-31T06:39:35.184Z,1000.07
2016-05-31T06:40:35.186Z,1000.06
2016-05-31T06:41:35.173Z,1000.08
2016-05-31T06:42:35.161Z,1000.14
2016-05-31T06:43:35.148Z,1000.2
2016-05-31T06:44:35.150Z,1000.24
2016-05-31T06:45:35.138Z,1000.19
2016-05-31T06:46:35.124Z,1000.2
2016-05-31T06:47:35.128Z,1000.19
2016-05-31T06:48:35.114Z,1000.21
2016-05-31T06:49:35.102Z,1000.21
2016-05-31T06:50:35.089Z,1000.17
2016-05-31T06:51:35.075Z,1000.18
2016-05-31T06:52:35.938Z,1000.19
2016-05-31T06:53:35.080Z,1000.17
2016-05-31T06:54:35.052Z,1000.22
2016-05-31T06:55:35.040Z,1000.26
2016-05-31T06:56:35.043Z,1000.26
2016-05-31T06:57:35.029Z,1000.22
2016-05-31T06:58:35.016Z,1000.23
2016-05-31T06:59:35.004Z,1000.23
2016-05-31T07:00:35.007Z,1000.29
2016-05-31T07:01:34.993Z,1000.24
2016-05-31T07:02:34.980Z,1000.23
2016-05-31T07:03:34.982Z,1000.27
2016-05-31T07:04:34.970Z,1000.28
2016-05-31T07:05:34.957Z,1000.18
2016-05-31T07:06:34.944Z,1000.21
2016-05-31T07:07:34.947Z,1000.31
2016-05-31T07:08:34.934Z,1000.34
2016-05-31T07:09:35.124Z,1000.32
2016-05-31T07:10:34.908Z,1000.31
2016-05-31T07:11:34.911Z,1000.29
2016-05-31T07:12:34.897Z,1000.32
2016-05-31T07:13:34.885Z,1000.34
2016-05-31T07:14:34.887Z,1000.36
2016-05-31T07:15:34.875Z,1000.37
2016-05-31T07:16:34.861Z,1000.38
2016-05-31T07:17:34.849Z,1000.47
2016-05-31T07:18:34.851Z,1000.45
2016-05-31T07:19:34.839Z,1000.47
2016-05-31T07:20:34.825Z,1000.44
2016-05-31T07:21:34.813Z,1000.44
2016-05-31T07:22:34.815Z,1000.5
2016-05-31T07:23:34.803Z,1000.48
2016-05-31T07:24:34.789Z,1000.53
2016-05-31T07:25:34.791Z,1000.57
2016-05-31T07:26:34.779Z,1000.59
2016-05-31T07:27:34.766Z,1000.48
2016-05-31T07:28:34.754Z,1000.5
2016-05-31T07:29:34.756Z,1000.55
2016-05-31T07:30:34.743Z,1000.55
2016-05-31T07:31:34.730Z,1000.53
2016-05-31T07:32:34.733Z,1000.55
2016-05-31T07:33:34.720Z,1000.62
2016-05-31T07:34:34.707Z,1000.62
2016-05-31T07:35:34.709Z,1000.63
2016-05-31T07:36:34.696Z,1000.66
2016-05-31T07:37:34.684Z,1000.66
2016-05-31T07:38:34.687Z,1000.71
2016-05-31T07:39:34.673Z,1000.62
2016-05-31T07:40:34.661Z,1000.62
2016-05-31T07:41:34.664Z,1000.66
2016-05-31T07:42:34.650Z,1000.62
2016-05-31T07:43:34.653Z,1000.65
2016-05-31T07:44:34.639Z,1000.62
2016-05-31T07:45:34.643Z,1000.58
2016-05-31T07:46:34.631Z,1000.68
2016-05-31T07:47:34.617Z,1000.69
2016-05-31T07:48:34.619Z,1000.72
2016-05-31T07:49:34.606Z,1000.71
2016-05-31T07:50:34.594Z,1000.74
2016-05-31T07:51:34.597Z,1000.78
2016-05-31T07:52:34.583Z,1000.76
2016-05-31T07:53:34.586Z,1000.79
2016-05-31T07:54:34.573Z,1000.85
2016-05-31T07:55:34.577Z,1000.8
2016-05-31T07:56:34.579Z,1000.81
2016-05-31T07:57:34.566Z,1000.89
2016-05-31T07:58:34.552Z,1000.89
2016-05-31T07:59:34.540Z,1000.87
2016-05-31T08:00:34.543Z,1000.88
2016-05-31T08:01:34.530Z,1000.86
2016-05-31T08:02:34.532Z,1000.93
2016-05-31T08:03:34.518Z,1000.96
2016-05-31T08:04:34.522Z,1001
2016-05-31T08:05:34.510Z,1000.94
2016-05-31T08:06:34.496Z,1000.92
2016-05-31T08:07:34.498Z,1000.95
2016-05-31T08:08:34.704Z,1000.97
2016-05-31T08:09:34.488Z,1000.99
2016-05-31T08:10:34.476Z,1001
2016-05-31T08:11:34.479Z,1000.99
2016-05-31T08:12:34.465Z,1001.01
2016-05-31T08:13:34.467Z,1000.98
2016-05-31T08:14:34.456Z,1001.03
2016-05-31T08:15:34.458Z,1001.07
2016-05-31T08:16:34.445Z,1001.01
2016-05-31T08:17:34.431Z,1001.06
2016-05-31T08:18:34.434Z,1001.07
2016-05-31T08:19:34.436Z,1001.16
2016-05-31T08:20:34.424Z,1001.11
2016-05-31T08:21:34.411Z,1001.09
2016-05-31T08:22:34.414Z,1001.11
2016-05-31T08:23:34.401Z,1001.12
2016-05-31T08:24:34.404Z,1001.09
2016-05-31T08:25:34.391Z,1001.14
2016-05-31T08:26:34.378Z,1001.11
2016-05-31T08:27:34.380Z,1001.11
2016-05-31T08:28:34.368Z,1001.14
2016-05-31T08:29:34.354Z,1001.12
2016-05-31T08:30:34.374Z,1001.15
2016-05-31T08:31:34.344Z,1001.17
2016-05-31T08:32:34.347Z,1001.12
2016-05-31T08:33:34.334Z,1001.16
2016-05-31T08:34:34.337Z,1001.23
2016-05-31T08:35:34.324Z,1001.22
2016-05-31T08:36:34.326Z,1001.23
2016-05-31T08:37:34.315Z,1001.27
2016-05-31T08:38:34.317Z,1001.25
2016-05-31T08:39:34.335Z,1001.33
2016-05-31T08:40:34.306Z,1001.33
2016-05-31T08:41:34.309Z,1001.24
2016-05-31T08:42:34.296Z,1001.24
2016-05-31T08:43:34.298Z,1001.24
2016-05-31T08:44:34.286Z,1001.35
2016-05-31T08:45:34.289Z,1001.39
2016-05-31T08:46:34.291Z,1001.44
2016-05-31T08:47:34.294Z,1001.45
2016-05-31T08:48:34.281Z,1001.4
2016-05-31T08:49:34.284Z,1001.35
2016-05-31T08:50:34.286Z,1001.38
2016-05-31T08:51:34.289Z,1001.36
2016-05-31T08:52:34.291Z,1001.34
2016-05-31T08:53:34.278Z,1001.37
2016-05-31T08:54:34.281Z,1001.38
2016-05-31T08:55:34.284Z,1001.4
2016-05-31T08:56:34.286Z,1001.47
2016-05-31T08:57:34.274Z,1001.37
2016-05-31T08:58:34.277Z,1001.42
2016-05-31T08:59:34.279Z,1001.37
2016-05-31T09:00:34.282Z,1001.43
2016-05-31T09:01:34.285Z,1001.4
2016-05-31T09:02:34.271Z,1001.42
2016-05-31T09:03:34.274Z,1001.5
2016-05-31T09:04:34.262Z,1001.57
2016-05-31T09:05:34.264Z,1001.48
2016-05-31T09:06:34.267Z,1001.72
2016-05-31T09:07:34.254Z,1001.48
2016-05-31T09:08:34.257Z,1001.5
2016-05-31T09:09:34.259Z,1001.43
2016-05-31T09:10:34.246Z,1001.47
2016-05-31T09:11:34.248Z,1001.42
2016-05-31T09:12:34.236Z,1001.44
2016-05-31T09:13:34.239Z,1001.45
2016-05-31T09:14:34.226Z,1001.48
2016-05-31T09:15:34.228Z,1001.47
2016-05-31T09:16:34.231Z,1001.46
2016-05-31T09:17:34.217Z,1001.51
2016-05-31T09:18:34.221Z,1001.73
2016-05-31T09:19:34.208Z,1001.47
2016-05-31T09:20:34.211Z,1001.54
2016-05-31T09:21:34.213Z,1001.52
2016-05-31T09:22:34.811Z,1001.61
2016-05-31T09:23:34.218Z,1001.64
2016-05-31T09:24:34.191Z,1001.56
2016-05-31T09:25:34.177Z,1001.69
2016-05-31T09:26:34.180Z,1001.64
2016-05-31T09:27:34.182Z,1001.78
2016-05-31T09:28:34.170Z,1001.78
2016-05-31T09:29:34.172Z,1001.73
2016-05-31T09:30:34.160Z,1001.84
2016-05-31T09:31:34.162Z,1001.93
2016-05-31T09:32:34.166Z,1001.96
2016-05-31T09:33:34.151Z,1001.59
2016-05-31T09:34:34.155Z,1001.64
2016-05-31T09:35:34.157Z,1001.56
2016-05-31T09:36:34.143Z,1001.6
2016-05-31T09:37:34.741Z,1001.62
2016-05-31T09:38:34.166Z,1001.65
2016-05-31T09:39:34.137Z,1001.64
2016-05-31T09:40:34.140Z,1001.71
2016-05-31T09:41:34.142Z,1001.66
2016-05-31T09:42:34.129Z,1001.68
2016-05-31T09:43:34.131Z,1001.73
2016-05-31T09:44:34.134Z,1001.67
2016-05-31T09:45:34.122Z,1001.74
2016-05-31T09:46:34.125Z,1001.75
2016-05-31T09:47:34.127Z,1001.94
2016-05-31T09:48:34.114Z,1001.77
2016-05-31T09:49:34.117Z,1001.82
2016-05-31T09:52:57.297Z,1001.83
2016-05-31T09:53:57.283Z,1001.87
2016-05-31T09:54:57.286Z,1001.93
2016-05-31T09:55:57.289Z,1001.97
2016-05-31T09:56:57.292Z,1001.97
2016-05-31T09:57:57.279Z,1001.91
2016-05-31T09:58:57.282Z,1001.9
2016-05-31T09:59:57.268Z,1001.93
2016-05-31T10:00:57.272Z,1001.95
2016-05-31T10:01:57.274Z,1001.92
2016-05-31T10:02:57.261Z,1001.95
2016-05-31T10:03:57.263Z,1001.96
2016-05-31T10:04:57.266Z,1002
2016-05-31T10:05:57.300Z,1001.99
2016-05-31T10:06:57.257Z,1001.83
2016-05-31T10:07:57.259Z,1002.03
2016-05-31T10:08:57.262Z,1002.05
2016-05-31T10:09:57.248Z,1002.07
2016-05-31T10:10:57.252Z,1002.06
2016-05-31T10:11:57.254Z,1002.13
2016-05-31T10:12:57.241Z,1002.11
2016-05-31T10:13:57.259Z,1002.09
2016-05-31T10:14:57.246Z,1002.16
2016-05-31T10:15:57.233Z,1002.15
2016-05-31T10:16:57.237Z,1002.18
2016-05-31T10:17:57.239Z,1002.18
2016-05-31T10:18:57.242Z,1002.17
2016-05-31T10:19:57.228Z,1002.2
2016-05-31T10:20:57.232Z,1002.25
2016-05-31T10:21:57.234Z,1002.24
2016-05-31T10:22:57.752Z,1002.19
2016-05-31T10:23:57.225Z,1002.19
2016-05-31T10:24:57.227Z,1002.22
2016-05-31T10:25:57.213Z,1002.21
2016-05-31T10:26:57.216Z,1002.2
2016-05-31T10:27:57.203Z,1002.23
2016-05-31T10:28:57.206Z,1002.25
2016-05-31T10:29:57.208Z,1002.29
2016-05-31T10:30:57.211Z,1002.36
2016-05-31T10:31:57.199Z,1002.35
2016-05-31T10:32:57.201Z,1002.29
2016-05-31T10:33:57.188Z,1002.31
2016-05-31T10:34:57.191Z,1002.31
2016-05-31T10:35:57.177Z,1002.32
2016-05-31T10:36:57.180Z,1002.34
2016-05-31T10:37:57.168Z,1002.37
2016-05-31T10:38:57.171Z,1002.38
2016-05-31T10:39:57.173Z,1002.37
2016-05-31T10:40:57.160Z,1002.4
2016-05-31T10:41:57.163Z,1002.34
2016-05-31T10:42:57.150Z,1002.39
2016-05-31T10:43:57.153Z,1002.35
2016-05-31T10:44:57.156Z,1002.38
2016-05-31T10:45:57.142Z,1002.44
2016-05-31T10:46:57.129Z,1002.43
2016-05-31T10:47:57.132Z,1002.5
2016-05-31T10:48:57.134Z,1002.51
2016-05-31T10:49:57.123Z,1002.46
2016-05-31T10:50:57.125Z,1002.52
2016-05-31T10:51:57.128Z,1002.47
2016-05-31T10:52:57.114Z,1002.42
2016-05-31T10:53:57.179Z,1002.5
2016-05-31T10:54:57.120Z,1002.5
2016-05-31T10:55:57.106Z,1002.53
2016-05-31T10:56:57.109Z,1002.59
2016-05-31T10:57:57.097Z,1002.54
2016-05-31T10:58:57.114Z,1002.5
2016-05-31T10:59:57.102Z,1002.54
2016-05-31T11:00:57.105Z,1002.5
2016-05-31T11:01:57.091Z,1002.56
2016-05-31T11:02:57.094Z,1002.56
2016-05-31T11:03:57.082Z,1002.54
2016-05-31T11:04:57.084Z,1002.58
2016-05-31T11:05:57.087Z,1002.52
2016-05-31T11:06:57.090Z,1002.55
2016-05-31T11:07:57.076Z,1002.64
2016-05-31T11:08:57.080Z,1002.58
2016-05-31T11:09:57.301Z,1002.58
2016-05-31T11:10:57.068Z,1002.59
2016-05-31T11:11:57.087Z,1002.59
2016-05-31T11:12:57.074Z,1002.61
2016-05-31T11:13:57.076Z,1002.64
2016-05-31T11:14:57.065Z,1002.66
2016-05-31T11:15:57.067Z,1002.68
2016-05-31T11:16:57.054Z,1002.68
2016-05-31T11:17:57.057Z,1002.74
2016-05-31T11:18:57.059Z,1002.68
2016-05-31T11:19:57.046Z,1002.72
2016-05-31T11:20:57.048Z,1002.75
2016-05-31T11:21:57.051Z,1002.75
2016-05-31T11:22:57.039Z,1002.79
2016-05-31T11:23:57.167Z,1002.76
2016-05-31T11:24:57.044Z,1002.76
2016-05-31T11:25:57.031Z,1002.78
2016-05-31T11:26:57.034Z,1002.79
2016-05-31T11:27:57.067Z,1002.81
2016-05-31T11:28:57.039Z,1002.81
2016-05-31T11:29:57.027Z,1002.77
2016-05-31T11:30:57.029Z,1002.8
2016-05-31T11:31:57.016Z,1002.8
2016-05-31T11:32:57.018Z,1002.82
2016-05-31T11:33:57.038Z,1002.8
2016-05-31T11:34:57.008Z,1002.78
2016-05-31T11:35:57.011Z,1002.83
2016-05-31T11:36:57.013Z,1002.79
2016-05-31T11:37:57.001Z,1002.82
2016-05-31T11:38:57.003Z,1002.82
2016-05-31T11:39:57.006Z,1002.81
2016-05-31T11:40:56.994Z,1002.85
2016-05-31T11:41:56.996Z,1002.78
2016-05-31T11:42:57.357Z,1002.83
2016-05-31T11:43:57.002Z,1002.81
2016-05-31T11:44:56.988Z,1002.88
2016-05-31T11:45:56.991Z,1002.82
2016-05-31T11:46:56.994Z,1002.84
2016-05-31T11:47:56.996Z,1002.85
2016-05-31T11:48:56.983Z,1002.85
2016-05-31T11:49:57.001Z,1002.84
2016-05-31T11:50:56.989Z,1002.83
2016-05-31T11:51:56.976Z,1002.88
2016-05-31T11:52:57.089Z,1002.93
2016-05-31T11:53:57.137Z,1002.89
2016-05-31T11:54:56.984Z,1002.9
2016-05-31T11:55:57.002Z,1002.88
2016-05-31T11:56:57.005Z,1002.88
2016-05-31T11:57:57.008Z,1002.89
2016-05-31T11:58:56.995Z,1002.91
2016-05-31T11:59:56.982Z,1002.89
2016-05-31T12:00:56.985Z,1002.88
2016-05-31T12:01:56.987Z,1002.9
2016-05-31T12:02:56.990Z,1002.88
2016-05-31T12:03:56.994Z,1002.87
2016-05-31T12:04:56.980Z,1002.85
2016-05-31T12:05:56.983Z,1002.84
2016-05-31T12:06:56.985Z,1002.86
2016-05-31T12:07:56.987Z,1002.88
2016-05-31T12:08:56.991Z,1002.87
2016-05-31T12:09:56.994Z,1002.85
2016-05-31T12:10:56.996Z,1002.85
2016-05-31T12:11:56.999Z,1002.86
2016-05-31T12:12:57.017Z,1002.84
2016-05-31T12:13:57.004Z,1002.85
2016-05-31T12:14:57.007Z,1002.89
2016-05-31T12:15:57.009Z,1002.84
2016-05-31T12:16:57.012Z,1002.93
2016-05-31T12:17:57.015Z,1002.94
2016-05-31T12:18:57.001Z,1002.95
2016-05-31T12:19:57.004Z,1002.93
2016-05-31T12:20:57.023Z,1002.92
2016-05-31T12:21:57.010Z,1002.93